Pacific Titan — WCZ6844 — position and weather

sailwx.info

Track history (hours):
 
Tides and Currents Weather Stations Pressure Air Temp Water Temp Dewpoint Dewpoint Depression Visibility Wind Speed Wind Dir Waves Ship Positions

Pacific Titan

Owner: WESTERN TOWBOAT CO, SEATTLE, WA. More information available from US FCC via Universal Licensing System and Coast Guard Vessel Documentation Center.

Last reported at 2014-Oct-31 06:34 UTC. Time now 2014-Oct-31 07:11 UTC.
Position N 50°41' W 126°53'.

Type: Tow > 200 m length. MMSI: 338855000.

Date/timePositionNaut miles runAvg speedWind from/ knotsBaromVisibWave heightAir tempDewpointWater temp
2014-Oct-31 06:34N 50°41' W 126°53'87 8.6
2014-Oct-30 20:29N 49°53' W 125°00'8 7.4
2014-Oct-30 19:24N 49°48' W 124°51'9 8.5
2014-Oct-30 18:23N 49°42' W 124°40'9 9.9
2014-Oct-30 17:29N 49°37' W 124°29'1010.0
2014-Oct-30 16:32N 49°32' W 124°16'1010.5
2014-Oct-30 15:33N 49°27' W 124°03'1110.7
2014-Oct-30 14:33N 49°20' W 123°50'1010.0
2014-Oct-30 13:33N 49°14' W 123°38'1110.6
2014-Oct-30 12:33N 49°07' W 123°26'1010.2
2014-Oct-30 11:33N 49°00' W 123°14'10 9.8
2014-Oct-30 10:33N 48°54' W 123°03'9 9.5
2014-Oct-30 09:33N 48°48' W 122°52'9 8.6
2014-Oct-30 08:33N 48°41' W 122°43'7 7.1
2014-Oct-30 07:33N 48°34' W 122°45'8 7.8
2014-Oct-30 06:33N 48°26' W 122°44'10 9.0
2014-Oct-30 05:28N 48°17' W 122°47'9 9.4
2014-Oct-30 04:31N 48°09' W 122°41'210.1
2014-Oct-30 04:22N 48°07' W 122°39'8 9.9
2014-Oct-30 03:33N 47°60' W 122°36'010.0
2014-Oct-30 03:32N 47°60' W 122°35'9 9.0
2014-Oct-30 02:33N 47°53' W 122°28'0 8.6
2014-Oct-30 02:32N 47°52' W 122°27'9 9.5
2014-Oct-30 01:33N 47°43' W 122°26'0 9.9
2014-Oct-30 01:31N 47°43' W 122°26'8 8.2
2014-Oct-30 00:33N 47°36' W 122°22'0 2.5
2014-Oct-30 00:32N 47°36' W 122°22'3 2.6
2014-Oct-29 23:33N 47°33' W 122°21'0 0.0
2014-Oct-29 23:31N 47°33' W 122°21'4 3.6
2014-Oct-29 22:33N 47°36' W 122°23'010.2
2014-Oct-29 22:31N 47°36' W 122°23'4 3.7
2014-Oct-29 21:33N 47°40' W 122°24'0 0.1
2014-Oct-29 21:31N 47°40' W 122°24'2 1.6
2014-Oct-29 20:33N 47°39' W 122°22'0 0.0
2014-Oct-29 20:31N 47°39' W 122°22'  
2014-Oct-26 10:18N 47°39' W 122°22'0 0.1
2014-Oct-26 10:15N 47°39' W 122°22'0 0.1
2014-Oct-26 09:34N 47°39' W 122°22'0 5.2
2014-Oct-26 09:30N 47°39' W 122°22'3 2.9
2014-Oct-26 08:34N 47°38' W 122°26'112.0
2014-Oct-26 08:30N 47°37' W 122°25'5 5.5
2014-Oct-26 07:33N 47°33' W 122°21'0 0.0
2014-Oct-26 07:30N 47°33' W 122°21'3 3.6
2014-Oct-26 06:34N 47°36' W 122°22'0 9.2
2014-Oct-26 06:30N 47°37' W 122°23'5 9.0
2014-Oct-26 06:00N 47°39' W 122°28'3 7.5
2014-Oct-26 05:33N 47°43' W 122°27'8 8.2
2014-Oct-26 04:34N 47°51' W 122°29'1 8.5
2014-Oct-26 04:29N 47°51' W 122°29'7 7.7
2014-Oct-26 03:33N 47°57' W 122°35'7 7.3
2014-Oct-26 02:33N 48°04' W 122°40'8 7.9
2014-Oct-26 01:33N 48°10' W 122°47'9 8.7
2014-Oct-26 00:33N 48°19' W 122°47'10 9.7
2014-Oct-25 23:33N 48°29' W 122°45'9 9.2
2014-Oct-25 22:33N 48°38' W 122°44'9 9.3
2014-Oct-25 21:33N 48°46' W 122°51'1010.3
2014-Oct-25 20:33N 48°51' W 123°04'10 9.8
2014-Oct-25 19:33N 48°58' W 123°15'1010.3
2014-Oct-25 18:33N 49°05' W 123°26'1110.8
2014-Oct-25 17:33N 49°12' W 123°39'1110.8
2014-Oct-25 16:33N 49°19' W 123°52'1010.4
2014-Oct-25 15:33N 49°26' W 124°04'1010.0
2014-Oct-25 14:33N 49°32' W 124°16'10 9.5
2014-Oct-25 13:33N 49°37' W 124°29'10 9.7
2014-Oct-25 12:33N 49°42' W 124°41'1010.0
2014-Oct-25 11:33N 49°48' W 124°53'1010.0
2014-Oct-25 10:32N 49°55' W 125°05'1313.2
2014-Oct-25 09:33N 50°06' W 125°17'51 8.2
2014-Oct-25 03:19N 50°30' W 126°27'7 7.8
2014-Oct-25 02:26N 50°31' W 126°38'7 6.9
2014-Oct-25 01:25N 50°36' W 126°45'7 7.7
2014-Oct-25 00:32N 50°41' W 126°53'9 8.9
2014-Oct-24 23:33N 50°45' W 127°05'8 8.4
2014-Oct-24 22:33N 50°50' W 127°16'9 8.6
2014-Oct-24 21:33N 50°56' W 127°26'9 8.8
2014-Oct-24 20:33N 51°01' W 127°37'9 8.7
2014-Oct-24 19:33N 51°07' W 127°47'17 8.2
2014-Oct-24 17:32N 51°23' W 127°53'  
Track history (hours):
 
Tides and Currents Weather Stations Pressure Air Temp Water Temp Dewpoint Dewpoint Depression Visibility Wind Speed Wind Dir Waves Ship Positions

Pacific Titan

Owner: WESTERN TOWBOAT CO, SEATTLE, WA. More information available from US FCC via Universal Licensing System and Coast Guard Vessel Documentation Center.

Last reported at 2014-Oct-31 06:34 UTC. Time now 2014-Oct-31 07:11 UTC.
Position N 50°41' W 126°53'.

Type: Tow > 200 m length. MMSI: 338855000.

Date/timePositionNaut miles runAvg speedWind from/ knotsBaromVisibWave heightAir tempDewpointWater temp
2014-Oct-31 06:34N 50°41' W 126°53'87 8.6
2014-Oct-30 20:29N 49°53' W 125°00'8 7.4
2014-Oct-30 19:24N 49°48' W 124°51'9 8.5
2014-Oct-30 18:23N 49°42' W 124°40'9 9.9
2014-Oct-30 17:29N 49°37' W 124°29'1010.0
2014-Oct-30 16:32N 49°32' W 124°16'1010.5
2014-Oct-30 15:33N 49°27' W 124°03'1110.7
2014-Oct-30 14:33N 49°20' W 123°50'1010.0
2014-Oct-30 13:33N 49°14' W 123°38'1110.6
2014-Oct-30 12:33N 49°07' W 123°26'1010.2
2014-Oct-30 11:33N 49°00' W 123°14'10 9.8
2014-Oct-30 10:33N 48°54' W 123°03'9 9.5
2014-Oct-30 09:33N 48°48' W 122°52'9 8.6
2014-Oct-30 08:33N 48°41' W 122°43'7 7.1
2014-Oct-30 07:33N 48°34' W 122°45'8 7.8
2014-Oct-30 06:33N 48°26' W 122°44'10 9.0
2014-Oct-30 05:28N 48°17' W 122°47'9 9.4
2014-Oct-30 04:31N 48°09' W 122°41'210.1
2014-Oct-30 04:22N 48°07' W 122°39'8 9.9
2014-Oct-30 03:33N 47°60' W 122°36'010.0
2014-Oct-30 03:32N 47°60' W 122°35'9 9.0
2014-Oct-30 02:33N 47°53' W 122°28'0 8.6
2014-Oct-30 02:32N 47°52' W 122°27'9 9.5
2014-Oct-30 01:33N 47°43' W 122°26'0 9.9
2014-Oct-30 01:31N 47°43' W 122°26'8 8.2
2014-Oct-30 00:33N 47°36' W 122°22'0 2.5
2014-Oct-30 00:32N 47°36' W 122°22'3 2.6
2014-Oct-29 23:33N 47°33' W 122°21'0 0.0
2014-Oct-29 23:31N 47°33' W 122°21'4 3.6
2014-Oct-29 22:33N 47°36' W 122°23'010.2
2014-Oct-29 22:31N 47°36' W 122°23'4 3.7
2014-Oct-29 21:33N 47°40' W 122°24'0 0.1
2014-Oct-29 21:31N 47°40' W 122°24'2 1.6
2014-Oct-29 20:33N 47°39' W 122°22'0 0.0
2014-Oct-29 20:31N 47°39' W 122°22'  
2014-Oct-26 10:18N 47°39' W 122°22'0 0.1
2014-Oct-26 10:15N 47°39' W 122°22'0 0.1
2014-Oct-26 09:34N 47°39' W 122°22'0 5.2
2014-Oct-26 09:30N 47°39' W 122°22'3 2.9
2014-Oct-26 08:34N 47°38' W 122°26'112.0
2014-Oct-26 08:30N 47°37' W 122°25'5 5.5
2014-Oct-26 07:33N 47°33' W 122°21'0 0.0
2014-Oct-26 07:30N 47°33' W 122°21'3 3.6
2014-Oct-26 06:34N 47°36' W 122°22'0 9.2
2014-Oct-26 06:30N 47°37' W 122°23'5 9.0
2014-Oct-26 06:00N 47°39' W 122°28'3 7.5
2014-Oct-26 05:33N 47°43' W 122°27'8 8.2
2014-Oct-26 04:34N 47°51' W 122°29'1 8.5
2014-Oct-26 04:29N 47°51' W 122°29'7 7.7
2014-Oct-26 03:33N 47°57' W 122°35'7 7.3
2014-Oct-26 02:33N 48°04' W 122°40'8 7.9
2014-Oct-26 01:33N 48°10' W 122°47'9 8.7
2014-Oct-26 00:33N 48°19' W 122°47'10 9.7
2014-Oct-25 23:33N 48°29' W 122°45'9 9.2
2014-Oct-25 22:33N 48°38' W 122°44'9 9.3
2014-Oct-25 21:33N 48°46' W 122°51'1010.3
2014-Oct-25 20:33N 48°51' W 123°04'10 9.8
2014-Oct-25 19:33N 48°58' W 123°15'1010.3
2014-Oct-25 18:33N 49°05' W 123°26'1110.8
2014-Oct-25 17:33N 49°12' W 123°39'1110.8
2014-Oct-25 16:33N 49°19' W 123°52'1010.4
2014-Oct-25 15:33N 49°26' W 124°04'1010.0
2014-Oct-25 14:33N 49°32' W 124°16'10 9.5
2014-Oct-25 13:33N 49°37' W 124°29'10 9.7
2014-Oct-25 12:33N 49°42' W 124°41'1010.0
2014-Oct-25 11:33N 49°48' W 124°53'1010.0
2014-Oct-25 10:32N 49°55' W 125°05'1313.2
2014-Oct-25 09:33N 50°06' W 125°17'51 8.2
2014-Oct-25 03:19N 50°30' W 126°27'7 7.8
2014-Oct-25 02:26N 50°31' W 126°38'7 6.9
2014-Oct-25 01:25N 50°36' W 126°45'7 7.7
2014-Oct-25 00:32N 50°41' W 126°53'9 8.9
2014-Oct-24 23:33N 50°45' W 127°05'8 8.4
2014-Oct-24 22:33N 50°50' W 127°16'9 8.6
2014-Oct-24 21:33N 50°56' W 127°26'9 8.8
2014-Oct-24 20:33N 51°01' W 127°37'9 8.7
2014-Oct-24 19:33N 51°07' W 127°47'17 8.2
2014-Oct-24 17:32N 51°23' W 127°53'  

Dump ship's entire track history